createdAt,value
2022-09-30T00:01:17.137Z,90.06
2022-09-30T00:04:05.721Z,90.32
2022-09-30T00:06:55.091Z,89.87
2022-09-30T00:09:44.962Z,89.66
2022-09-30T00:12:33.336Z,90.02
2022-09-30T00:15:24.387Z,89.78
2022-09-30T00:18:12.636Z,90.09
2022-09-30T00:21:02.045Z,89.74
2022-09-30T00:23:50.432Z,89.38
2022-09-30T00:26:40.120Z,89.56
2022-09-30T00:29:28.410Z,89.48
2022-09-30T00:32:16.802Z,89.64
2022-09-30T00:35:05.660Z,89.38
2022-09-30T00:37:55.250Z,89.62
2022-09-30T00:40:44.203Z,89.71
2022-09-30T00:43:45.678Z,89.23
2022-09-30T00:46:43.679Z,88.95
2022-09-30T00:49:32.912Z,89.38
2022-09-30T00:52:21.409Z,89.03
2022-09-30T00:55:18.377Z,89.91
2022-09-30T00:58:09.835Z,89.79
2022-09-30T01:01:02.913Z,90.76
2022-09-30T01:03:55.682Z,90.36
2022-09-30T01:06:45.152Z,90.07
2022-09-30T01:09:35.017Z,89.87
2022-09-30T01:12:25.820Z,89.75
2022-09-30T01:15:14.336Z,89.81
2022-09-30T01:18:12.022Z,89.98
2022-09-30T01:21:51.950Z,89.70
2022-09-30T01:24:51.647Z,90.10
2022-09-30T01:28:06.768Z,89.65
2022-09-30T01:31:12.655Z,89.70
2022-09-30T01:34:11.376Z,89.23
2022-09-30T01:37:09.155Z,89.24
2022-09-30T01:40:04.794Z,89.14
2022-09-30T01:43:03.764Z,89.05
2022-09-30T01:46:00.235Z,89.04
2022-09-30T01:48:57.558Z,89.05
2022-09-30T01:51:53.610Z,89.04
2022-09-30T01:54:48.266Z,88.91
2022-09-30T01:57:45.163Z,88.76
2022-09-30T02:00:37.519Z,88.57
2022-09-30T02:03:32.048Z,88.57
2022-09-30T02:06:26.492Z,88.19
2022-09-30T02:09:17.941Z,88.59
2022-09-30T02:12:10.685Z,88.08
2022-09-30T02:15:03.930Z,88.20
2022-09-30T02:17:58.372Z,88.56
2022-09-30T02:20:50.696Z,88.31
2022-09-30T02:23:45.774Z,88.67
2022-09-30T02:26:37.686Z,88.90
2022-09-30T02:29:31.075Z,88.62
2022-09-30T02:32:24.838Z,88.77
2022-09-30T02:35:20.013Z,88.61
2022-09-30T02:38:15.224Z,88.72
2022-09-30T02:41:10.548Z,89.32
2022-09-30T02:44:01.278Z,88.63
2022-09-30T02:46:58.437Z,89.40
2022-09-30T02:49:51.336Z,89.61
2022-09-30T02:52:49.416Z,89.36
2022-09-30T02:55:52.850Z,89.46
2022-09-30T02:58:44.696Z,89.08
2022-09-30T03:01:33.502Z,88.40
2022-09-30T03:04:26.314Z,88.67
2022-09-30T03:07:15.708Z,88.03
2022-09-30T03:10:14.309Z,88.49
2022-09-30T03:13:19.743Z,88.44
2022-09-30T03:16:20.514Z,88.82
2022-09-30T03:19:23.953Z,88.74
2022-09-30T03:22:30.536Z,88.97
2022-09-30T03:25:28.447Z,88.82
2022-09-30T03:28:26.403Z,88.65
2022-09-30T03:31:26.109Z,89.06
2022-09-30T03:34:26.998Z,88.97
2022-09-30T03:37:25.724Z,89.80
2022-09-30T03:40:19.546Z,89.48
2022-09-30T03:43:16.161Z,89.68
2022-09-30T03:46:11.289Z,89.63
2022-09-30T03:49:04.255Z,90.20
2022-09-30T03:51:53.801Z,89.90
2022-09-30T03:54:50.917Z,90.11
2022-09-30T03:57:39.511Z,89.70
2022-09-30T04:00:27.994Z,89.92
2022-09-30T04:03:16.419Z,89.98
2022-09-30T04:06:06.412Z,89.54
2022-09-30T04:08:55.037Z,89.28
2022-09-30T04:11:43.437Z,89.61
2022-09-30T04:14:31.886Z,89.76
2022-09-30T04:17:20.356Z,89.69
2022-09-30T04:20:09.388Z,89.87
2022-09-30T04:23:00.100Z,89.55
2022-09-30T04:25:53.513Z,89.66
2022-09-30T04:28:42.217Z,90.01
2022-09-30T04:31:30.655Z,90.03
2022-09-30T04:34:19.075Z,89.70
2022-09-30T04:37:10.786Z,89.91
2022-09-30T04:40:02.011Z,89.75
2022-09-30T04:42:50.370Z,89.69
2022-09-30T04:45:39.392Z,89.81
2022-09-30T04:48:28.954Z,89.69
2022-09-30T04:51:19.624Z,90.07
2022-09-30T04:54:07.981Z,90.05
2022-09-30T04:56:57.759Z,89.99
2022-09-30T04:59:46.122Z,89.85
2022-09-30T05:02:34.448Z,90.01
2022-09-30T05:05:22.834Z,89.45
2022-09-30T05:08:11.290Z,89.54
2022-09-30T05:11:01.739Z,89.72
2022-09-30T05:13:52.111Z,89.64
2022-09-30T05:16:40.517Z,90.56
2022-09-30T05:19:28.866Z,91.33
2022-09-30T05:22:17.403Z,91.31
2022-09-30T05:25:06.625Z,91.30
2022-09-30T05:27:54.968Z,90.88
2022-09-30T05:30:45.516Z,91.85
2022-09-30T05:33:36.033Z,91.66
2022-09-30T05:36:24.533Z,91.58
2022-09-30T05:39:13.556Z,91.12
2022-09-30T05:42:01.986Z,91.11
2022-09-30T05:44:50.498Z,91.70
2022-09-30T05:47:40.404Z,91.54
2022-09-30T05:50:29.372Z,92.05
2022-09-30T05:53:19.494Z,92.26
2022-09-30T05:56:09.195Z,91.91
2022-09-30T05:58:58.988Z,91.51
2022-09-30T06:01:47.494Z,91.56
2022-09-30T06:04:37.826Z,91.96
2022-09-30T06:07:26.505Z,92.08
2022-09-30T06:10:14.850Z,91.79
2022-09-30T06:13:04.166Z,91.48
2022-09-30T06:15:59.868Z,91.47
2022-09-30T06:18:48.287Z,91.59
2022-09-30T06:21:39.523Z,91.56
2022-09-30T06:24:28.181Z,91.79
2022-09-30T06:27:16.626Z,91.32
2022-09-30T06:30:05.660Z,90.93
2022-09-30T06:32:57.385Z,90.85
2022-09-30T06:35:47.505Z,90.87
2022-09-30T06:38:39.931Z,90.36
2022-09-30T06:41:29.012Z,90.16
2022-09-30T06:44:17.369Z,89.92
2022-09-30T06:47:10.740Z,90.39
2022-09-30T06:50:04.267Z,89.88
2022-09-30T06:52:52.767Z,89.86
2022-09-30T06:55:43.150Z,89.73
2022-09-30T06:58:31.600Z,89.64
2022-09-30T07:01:21.099Z,90.07
2022-09-30T07:04:11.488Z,89.69
2022-09-30T07:06:59.929Z,90.30
2022-09-30T07:09:48.531Z,90.27
2022-09-30T07:12:38.596Z,89.76
2022-09-30T07:15:27.023Z,89.60
2022-09-30T07:18:20.663Z,90.21
2022-09-30T07:21:09.029Z,89.70
2022-09-30T07:23:59.005Z,90.58
2022-09-30T07:26:47.291Z,90.46
2022-09-30T07:29:56.857Z,89.11
2022-09-30T07:32:45.345Z,88.92
2022-09-30T07:35:34.126Z,89.55
2022-09-30T07:38:24.282Z,89.39
2022-09-30T07:41:14.482Z,89.38
2022-09-30T07:44:03.280Z,88.86
2022-09-30T07:46:52.996Z,90.08
2022-09-30T07:49:41.513Z,89.91
2022-09-30T07:52:29.852Z,89.31
2022-09-30T07:55:18.147Z,89.28
2022-09-30T07:58:08.256Z,89.63
2022-09-30T08:00:56.571Z,89.20
2022-09-30T08:03:46.473Z,89.60
2022-09-30T08:06:38.927Z,88.93
2022-09-30T08:09:29.710Z,89.26
2022-09-30T08:12:18.265Z,88.36
2022-09-30T08:15:09.743Z,88.97
2022-09-30T08:17:58.045Z,88.75
2022-09-30T08:20:47.944Z,89.00
2022-09-30T08:23:36.484Z,88.37
2022-09-30T08:26:25.199Z,88.57
2022-09-30T08:29:20.348Z,89.83
2022-09-30T08:32:09.285Z,89.79
2022-09-30T08:34:57.660Z,89.55
2022-09-30T08:37:47.430Z,89.01
2022-09-30T08:40:54.375Z,89.29
2022-09-30T08:43:55.628Z,89.09
2022-09-30T08:46:48.220Z,88.63
2022-09-30T08:49:50.078Z,88.63
2022-09-30T08:52:49.487Z,89.09
2022-09-30T08:55:42.928Z,89.28
2022-09-30T08:58:33.576Z,88.78
2022-09-30T09:01:31.078Z,89.01
2022-09-30T09:04:20.062Z,89.08
2022-09-30T09:07:18.758Z,88.27
2022-09-30T09:10:20.069Z,88.00
2022-09-30T09:13:19.495Z,87.86
2022-09-30T09:16:14.213Z,88.95
2022-09-30T09:19:10.825Z,88.75
2022-09-30T09:22:03.201Z,87.73
2022-09-30T09:24:53.654Z,87.49
2022-09-30T09:27:51.169Z,88.83
2022-09-30T09:30:47.203Z,89.28
2022-09-30T09:33:39.557Z,88.47
2022-09-30T09:36:45.581Z,88.82
2022-09-30T09:39:51.030Z,90.05
2022-09-30T09:42:59.322Z,90.08
2022-09-30T09:45:57.258Z,89.18
2022-09-30T09:48:46.014Z,89.58
2022-09-30T09:51:37.349Z,89.40
2022-09-30T09:54:31.247Z,88.90
2022-09-30T09:57:25.901Z,88.51
2022-09-30T10:00:51.242Z,88.77
2022-09-30T10:03:40.984Z,89.21
2022-09-30T10:06:44.653Z,91.21
2022-09-30T10:09:35.391Z,89.88
2022-09-30T10:12:29.906Z,89.83
2022-09-30T10:15:23.242Z,89.39
2022-09-30T10:18:19.079Z,88.90
2022-09-30T10:21:20.760Z,88.79
2022-09-30T10:24:21.518Z,88.10
2022-09-30T10:27:27.984Z,88.36
2022-09-30T10:30:32.396Z,87.78
2022-09-30T10:33:25.452Z,87.74
2022-09-30T10:36:18.993Z,87.96
2022-09-30T10:39:09.569Z,87.15
2022-09-30T10:42:03.354Z,87.53
2022-09-30T10:44:56.113Z,87.34
2022-09-30T10:47:47.341Z,87.70
2022-09-30T10:50:36.083Z,87.86
2022-09-30T10:53:29.754Z,87.69
2022-09-30T10:56:33.817Z,87.44
2022-09-30T10:59:33.236Z,87.56
2022-09-30T11:02:30.121Z,87.89
2022-09-30T11:05:21.125Z,87.64
2022-09-30T11:08:19.409Z,87.63
2022-09-30T11:11:14.354Z,87.18
2022-09-30T11:14:17.231Z,87.08
2022-09-30T11:17:21.783Z,87.97
2022-09-30T11:20:20.539Z,87.40
2022-09-30T11:23:16.269Z,88.17
2022-09-30T11:26:13.659Z,88.26
2022-09-30T11:29:15.918Z,88.13
2022-09-30T11:32:14.117Z,88.73
2022-09-30T11:35:18.207Z,89.38
2022-09-30T11:38:16.175Z,89.54
2022-09-30T11:41:10.194Z,88.64
2022-09-30T11:44:09.136Z,89.71
2022-09-30T11:47:24.622Z,89.69
2022-09-30T11:50:35.135Z,89.83
2022-09-30T11:53:35.253Z,89.15
2022-09-30T11:56:41.413Z,88.19
2022-09-30T11:59:38.736Z,91.83
2022-09-30T12:02:36.636Z,90.98
2022-09-30T12:05:28.608Z,89.74
2022-09-30T12:08:21.015Z,90.40
2022-09-30T12:11:13.460Z,92.67
2022-09-30T12:14:06.792Z,92.78
2022-09-30T12:16:57.878Z,94.92
2022-09-30T12:19:49.789Z,94.38
2022-09-30T12:22:42.124Z,94.98
2022-09-30T12:25:37.960Z,92.95
2022-09-30T12:28:51.878Z,93.91
2022-09-30T12:32:09.551Z,92.93
2022-09-30T12:35:15.942Z,93.14
2022-09-30T12:38:18.046Z,93.55
2022-09-30T12:41:27.964Z,93.95
2022-09-30T12:44:41.164Z,94.81
2022-09-30T12:47:37.626Z,94.21
2022-09-30T12:50:29.802Z,92.17
2022-09-30T12:53:22.899Z,94.99
2022-09-30T12:56:15.832Z,92.69
2022-09-30T12:59:04.872Z,92.80
2022-09-30T13:01:53.672Z,94.83
2022-09-30T13:04:44.980Z,93.23
2022-09-30T13:07:34.761Z,93.34
2022-09-30T13:10:29.141Z,94.57
2022-09-30T13:13:24.742Z,96.19
2022-09-30T13:16:13.009Z,94.01
2022-09-30T13:19:03.376Z,94.77
2022-09-30T13:21:52.986Z,96.06
2022-09-30T13:25:12.159Z,97.25
2022-09-30T13:28:29.869Z,92.81
2022-09-30T13:31:20.032Z,93.60
2022-09-30T13:34:12.714Z,92.41
2022-09-30T13:37:03.881Z,92.92
2022-09-30T13:39:56.170Z,92.81
2022-09-30T13:42:52.346Z,90.79
2022-09-30T13:45:42.020Z,91.51
2022-09-30T13:48:33.712Z,89.50
2022-09-30T13:51:25.509Z,88.59
2022-09-30T13:54:24.178Z,90.62
2022-09-30T13:57:20.005Z,90.42
2022-09-30T14:00:14.068Z,90.60
2022-09-30T14:03:13.983Z,91.05
2022-09-30T14:06:11.524Z,90.42
2022-09-30T14:09:20.653Z,91.14
2022-09-30T14:12:23.583Z,93.41
2022-09-30T14:15:57.331Z,93.92
2022-09-30T14:19:11.461Z,94.00
2022-09-30T14:22:04.162Z,93.80
2022-09-30T14:24:54.342Z,93.55
2022-09-30T14:27:55.434Z,93.21
2022-09-30T14:31:05.922Z,91.48
2022-09-30T14:33:54.632Z,91.24
2022-09-30T14:36:43.352Z,91.61
2022-09-30T14:39:33.579Z,93.96
2022-09-30T14:42:29.813Z,94.86
2022-09-30T14:45:24.773Z,93.33
2022-09-30T14:48:18.615Z,92.45
2022-09-30T14:51:10.700Z,92.54
2022-09-30T14:54:02.118Z,91.17
2022-09-30T14:56:54.779Z,90.71
2022-09-30T14:59:44.561Z,89.88
2022-09-30T15:02:33.730Z,91.12
2022-09-30T15:05:22.293Z,91.00
2022-09-30T15:08:18.489Z,90.00
2022-09-30T15:11:07.152Z,89.31
2022-09-30T15:14:01.288Z,88.78
2022-09-30T15:16:53.072Z,88.63
2022-09-30T15:19:45.137Z,88.77
2022-09-30T15:22:33.853Z,88.30
2022-09-30T15:25:23.156Z,88.24
2022-09-30T15:28:12.283Z,87.46
2022-09-30T15:31:00.718Z,87.18
2022-09-30T15:33:50.657Z,86.93
2022-09-30T15:36:39.261Z,87.37
2022-09-30T15:39:50.591Z,87.77
2022-09-30T15:42:43.622Z,87.05
2022-09-30T15:45:35.767Z,86.31
2022-09-30T15:48:36.164Z,86.90
2022-09-30T15:51:38.213Z,86.74
2022-09-30T15:54:38.066Z,86.80
2022-09-30T15:57:44.568Z,87.25
2022-09-30T16:00:39.673Z,88.10
2022-09-30T16:03:30.542Z,88.44
2022-09-30T16:06:26.098Z,87.93
2022-09-30T16:09:27.283Z,88.59
2022-09-30T16:12:19.484Z,88.38
2022-09-30T16:15:15.668Z,88.33
2022-09-30T16:18:04.134Z,90.92
2022-09-30T16:21:00.671Z,91.70
2022-09-30T16:23:49.071Z,91.63
2022-09-30T16:26:45.729Z,91.25
2022-09-30T16:29:34.523Z,91.47
2022-09-30T16:32:23.795Z,90.85
2022-09-30T16:35:18.956Z,89.81
2022-09-30T16:38:08.318Z,89.52
2022-09-30T16:41:00.589Z,89.16
2022-09-30T16:43:51.160Z,88.29
2022-09-30T16:46:39.491Z,87.59
2022-09-30T16:49:28.189Z,87.44
2022-09-30T16:52:17.492Z,86.95
2022-09-30T16:55:06.564Z,87.16
2022-09-30T16:57:58.124Z,86.95
2022-09-30T17:00:47.823Z,86.53
2022-09-30T17:03:36.270Z,87.78
2022-09-30T17:06:28.785Z,89.93
2022-09-30T17:09:17.181Z,89.71
2022-09-30T17:12:05.732Z,91.24
2022-09-30T17:14:54.107Z,90.89
2022-09-30T17:17:43.930Z,91.77
2022-09-30T17:20:32.253Z,94.36
2022-09-30T17:23:21.248Z,94.86
2022-09-30T17:26:09.602Z,95.06
2022-09-30T17:29:14.583Z,95.37
2022-09-30T17:32:07.406Z,94.50
2022-09-30T17:34:57.163Z,94.14
2022-09-30T17:37:46.603Z,94.47
2022-09-30T17:40:51.805Z,93.35
2022-09-30T17:43:40.306Z,93.12
2022-09-30T17:46:29.132Z,94.45
2022-09-30T17:49:22.006Z,93.92
2022-09-30T17:52:15.072Z,92.25
2022-09-30T17:55:03.618Z,91.74
2022-09-30T17:57:54.196Z,90.79
2022-09-30T18:00:42.952Z,90.77
2022-09-30T18:03:32.439Z,91.29
2022-09-30T18:06:21.508Z,90.83
2022-09-30T18:09:11.426Z,90.82
2022-09-30T18:12:00.435Z,90.63
2022-09-30T18:14:48.804Z,90.62
2022-09-30T18:17:37.280Z,90.18
2022-09-30T18:20:25.884Z,90.08
2022-09-30T18:23:15.049Z,89.32
2022-09-30T18:26:04.872Z,89.21
2022-09-30T18:28:53.585Z,89.05
2022-09-30T18:31:43.322Z,88.13
2022-09-30T18:34:31.821Z,88.35
2022-09-30T18:37:20.520Z,88.58
2022-09-30T18:40:09.945Z,89.01
2022-09-30T18:43:02.592Z,89.88
2022-09-30T18:45:56.524Z,90.24
2022-09-30T18:48:45.285Z,89.37
2022-09-30T18:51:34.009Z,88.96
2022-09-30T18:54:24.071Z,88.84
2022-09-30T18:57:12.447Z,88.89
2022-09-30T19:00:02.958Z,88.59
2022-09-30T19:02:53.274Z,87.94
2022-09-30T19:05:42.775Z,87.89
2022-09-30T19:08:31.509Z,88.35
2022-09-30T19:11:20.266Z,88.31
2022-09-30T19:14:10.739Z,88.22
2022-09-30T19:17:00.477Z,87.92
2022-09-30T19:19:50.897Z,87.56
2022-09-30T19:22:39.288Z,87.37
2022-09-30T19:25:27.649Z,87.42
2022-09-30T19:28:16.360Z,87.26
2022-09-30T19:31:08.827Z,87.09
2022-09-30T19:33:59.195Z,87.31
2022-09-30T19:36:51.871Z,87.24
2022-09-30T19:39:45.920Z,87.38
2022-09-30T19:42:37.939Z,87.15
2022-09-30T19:45:27.378Z,86.95
2022-09-30T19:48:15.877Z,86.91
2022-09-30T19:51:08.742Z,87.33
2022-09-30T19:54:06.343Z,87.33
2022-09-30T19:56:55.541Z,87.01
2022-09-30T19:59:43.929Z,87.06
2022-09-30T20:02:32.409Z,87.17
2022-09-30T20:05:22.571Z,87.46
2022-09-30T20:08:12.704Z,87.18
2022-09-30T20:11:06.655Z,87.50
2022-09-30T20:14:12.126Z,87.58
2022-09-30T20:17:00.421Z,87.76
2022-09-30T20:20:09.149Z,87.43
2022-09-30T20:23:01.365Z,87.02
2022-09-30T20:25:52.846Z,86.72
2022-09-30T20:28:42.028Z,87.15
2022-09-30T20:31:31.853Z,86.79
2022-09-30T20:34:20.736Z,87.04
2022-09-30T20:37:09.254Z,87.02
2022-09-30T20:39:57.885Z,87.34
2022-09-30T20:42:47.935Z,87.55
2022-09-30T20:45:36.590Z,87.91
2022-09-30T20:48:26.437Z,88.00
2022-09-30T20:51:19.349Z,88.85
2022-09-30T20:54:07.739Z,88.39
2022-09-30T20:57:07.304Z,88.77
2022-09-30T20:59:58.501Z,88.58
2022-09-30T21:02:46.898Z,88.67
2022-09-30T21:05:36.134Z,88.76
2022-09-30T21:08:25.067Z,88.72
2022-09-30T21:11:14.915Z,89.01
2022-09-30T21:14:06.126Z,89.25
2022-09-30T21:16:55.905Z,88.94
2022-09-30T21:19:44.446Z,89.87
2022-09-30T21:22:32.807Z,90.69
2022-09-30T21:25:21.255Z,91.94
2022-09-30T21:28:09.645Z,92.46
2022-09-30T21:30:58.344Z,91.72
2022-09-30T21:33:51.498Z,90.94
2022-09-30T21:36:39.902Z,91.02
2022-09-30T21:39:28.273Z,91.81
2022-09-30T21:42:16.697Z,91.88
2022-09-30T21:45:05.849Z,91.34
2022-09-30T21:48:02.061Z,93.72
2022-09-30T21:50:51.871Z,92.38
2022-09-30T21:53:40.394Z,92.42
2022-09-30T21:56:29.357Z,92.41
2022-09-30T21:59:18.084Z,93.95
2022-09-30T22:02:06.666Z,92.58
2022-09-30T22:04:55.030Z,92.55
2022-09-30T22:07:44.620Z,93.09
2022-09-30T22:10:33.038Z,92.80
2022-09-30T22:13:21.400Z,93.20
2022-09-30T22:16:09.822Z,93.64
2022-09-30T22:19:00.619Z,95.42
2022-09-30T22:21:49.142Z,94.07
2022-09-30T22:24:39.044Z,93.38
2022-09-30T22:27:27.398Z,92.84
2022-09-30T22:30:15.811Z,94.88
2022-09-30T22:33:21.695Z,93.28
2022-09-30T22:36:27.744Z,92.87
2022-09-30T22:39:16.189Z,92.23
2022-09-30T22:42:07.367Z,95.76
2022-09-30T22:44:55.720Z,93.77
2022-09-30T22:47:44.194Z,93.08
2022-09-30T22:50:36.013Z,93.64
2022-09-30T22:53:24.726Z,93.54
2022-09-30T22:56:13.090Z,93.89
2022-09-30T22:59:03.062Z,92.74
2022-09-30T23:01:51.900Z,92.41
2022-09-30T23:04:40.237Z,91.90
2022-09-30T23:07:28.594Z,91.62
2022-09-30T23:10:17.164Z,91.45
2022-09-30T23:13:08.952Z,91.54
2022-09-30T23:16:00.230Z,93.00
2022-09-30T23:18:48.636Z,92.97
2022-09-30T23:21:37.620Z,93.31
2022-09-30T23:24:26.224Z,93.04
2022-09-30T23:27:14.680Z,93.23
2022-09-30T23:30:03.034Z,92.79
2022-09-30T23:32:52.690Z,92.21
2022-09-30T23:35:46.257Z,93.46
2022-09-30T23:38:35.123Z,93.22
2022-09-30T23:41:23.563Z,92.28
2022-09-30T23:44:11.845Z,93.00
2022-09-30T23:47:17.459Z,93.70
2022-09-30T23:50:08.472Z,93.57
2022-09-30T23:52:58.654Z,92.64
2022-09-30T23:55:55.401Z,94.27
2022-09-30T23:58:44.584Z,93.71
